Terminal Aerodrome Forecast
Issued by NWS

Home | Current Version | Previous Version | Text Only | Print | Product List | Glossary On
Versions: 1 2 3 4 5 6 7 8 9 10 11 12
000
FTUS42 KMLB 181127
TAFISM
TAF
KISM 181127Z 1812/1912 VRB02KT P6SM BKN250
     FM181500 22006KT P6SM SCT035 BKN250
     FM181800 25007KT P6SM SCT035 BKN250
     FM182300 VRB04KT P6SM FEW045 BKN250=

USA.gov is the U.S. government's official web portal to all federal, state and local government web resources and services.